sensor_id;sensor_type;location;lat;lon;timestamp;P1;durP1;ratioP1;P2;durP2;ratioP2
43620;SDS011;29213;50.770;7.298;2023-07-31T00:01:42;5.18;;;2.28;;
43620;SDS011;29213;50.770;7.298;2023-07-31T00:04:08;4.82;;;2.28;;
43620;SDS011;29213;50.770;7.298;2023-07-31T00:06:33;4.75;;;1.90;;
43620;SDS011;29213;50.770;7.298;2023-07-31T00:08:58;4.75;;;1.88;;
43620;SDS011;29213;50.770;7.298;2023-07-31T00:11:24;6.57;;;2.40;;
43620;SDS011;29213;50.770;7.298;2023-07-31T00:13:49;6.03;;;2.20;;
43620;SDS011;29213;50.770;7.298;2023-07-31T00:16:14;4.88;;;2.30;;
43620;SDS011;29213;50.770;7.298;2023-07-31T00:18:40;4.75;;;2.22;;
43620;SDS011;29213;50.770;7.298;2023-07-31T00:21:05;4.95;;;2.30;;
43620;SDS011;29213;50.770;7.298;2023-07-31T00:23:31;4.22;;;2.05;;
43620;SDS011;29213;50.770;7.298;2023-07-31T00:25:56;4.88;;;2.50;;
43620;SDS011;29213;50.770;7.298;2023-07-31T00:28:21;5.95;;;2.50;;
43620;SDS011;29213;50.770;7.298;2023-07-31T00:30:47;5.88;;;2.55;;
43620;SDS011;29213;50.770;7.298;2023-07-31T00:33:12;5.22;;;2.40;;
43620;SDS011;29213;50.770;7.298;2023-07-31T00:35:38;5.03;;;2.50;;
43620;SDS011;29213;50.770;7.298;2023-07-31T00:38:03;4.60;;;2.28;;
43620;SDS011;29213;50.770;7.298;2023-07-31T00:40:29;5.97;;;2.50;;
43620;SDS011;29213;50.770;7.298;2023-07-31T00:42:54;3.90;;;2.00;;
43620;SDS011;29213;50.770;7.298;2023-07-31T00:45:19;4.68;;;2.50;;
43620;SDS011;29213;50.770;7.298;2023-07-31T00:47:48;4.82;;;2.33;;
43620;SDS011;29213;50.770;7.298;2023-07-31T00:50:14;5.38;;;2.60;;
43620;SDS011;29213;50.770;7.298;2023-07-31T00:52:39;4.28;;;2.20;;
43620;SDS011;29213;50.770;7.298;2023-07-31T00:55:05;4.53;;;2.30;;
43620;SDS011;29213;50.770;7.298;2023-07-31T00:57:31;3.55;;;1.90;;
43620;SDS011;29213;50.770;7.298;2023-07-31T00:59:58;4.80;;;2.17;;
43620;SDS011;29213;50.770;7.298;2023-07-31T01:02:23;3.70;;;2.08;;
43620;SDS011;29213;50.770;7.298;2023-07-31T01:04:49;4.43;;;2.10;;
43620;SDS011;29213;50.770;7.298;2023-07-31T01:07:20;6.57;;;2.30;;
43620;SDS011;29213;50.770;7.298;2023-07-31T01:09:53;4.63;;;2.08;;
43620;SDS011;29213;50.770;7.298;2023-07-31T01:12:20;3.67;;;2.03;;
43620;SDS011;29213;50.770;7.298;2023-07-31T01:14:52;4.10;;;2.25;;
43620;SDS011;29213;50.770;7.298;2023-07-31T01:17:27;4.00;;;1.80;;
43620;SDS011;29213;50.770;7.298;2023-07-31T01:19:54;4.07;;;1.90;;
43620;SDS011;29213;50.770;7.298;2023-07-31T01:22:27;4.10;;;2.03;;
43620;SDS011;29213;50.770;7.298;2023-07-31T01:27:59;3.67;;;1.85;;
43620;SDS011;29213;50.770;7.298;2023-07-31T01:30:32;5.22;;;1.85;;
43620;SDS011;29213;50.770;7.298;2023-07-31T01:33:02;4.15;;;1.83;;
43620;SDS011;29213;50.770;7.298;2023-07-31T01:35:36;4.50;;;1.90;;
43620;SDS011;29213;50.770;7.298;2023-07-31T01:38:03;4.75;;;1.90;;
43620;SDS011;29213;50.770;7.298;2023-07-31T01:40:29;4.68;;;2.00;;
43620;SDS011;29213;50.770;7.298;2023-07-31T01:42:55;4.10;;;1.90;;
43620;SDS011;29213;50.770;7.298;2023-07-31T01:45:20;4.35;;;1.95;;
43620;SDS011;29213;50.770;7.298;2023-07-31T01:47:46;4.20;;;1.70;;
43620;SDS011;29213;50.770;7.298;2023-07-31T01:50:11;4.35;;;1.83;;
43620;SDS011;29213;50.770;7.298;2023-07-31T01:52:37;3.40;;;1.80;;
43620;SDS011;29213;50.770;7.298;2023-07-31T01:55:02;4.15;;;1.92;;
43620;SDS011;29213;50.770;7.298;2023-07-31T01:57:28;5.38;;;2.00;;
43620;SDS011;29213;50.770;7.298;2023-07-31T01:59:53;5.32;;;1.73;;
43620;SDS011;29213;50.770;7.298;2023-07-31T02:02:19;3.65;;;1.90;;
43620;SDS011;29213;50.770;7.298;2023-07-31T02:04:45;4.38;;;2.15;;
43620;SDS011;29213;50.770;7.298;2023-07-31T02:07:11;3.63;;;1.80;;
43620;SDS011;29213;50.770;7.298;2023-07-31T02:09:37;6.07;;;2.03;;
43620;SDS011;29213;50.770;7.298;2023-07-31T02:12:02;4.63;;;2.03;;
43620;SDS011;29213;50.770;7.298;2023-07-31T02:14:27;4.68;;;2.00;;
43620;SDS011;29213;50.770;7.298;2023-07-31T02:16:53;4.35;;;1.98;;
43620;SDS011;29213;50.770;7.298;2023-07-31T02:19:18;3.60;;;2.08;;
43620;SDS011;29213;50.770;7.298;2023-07-31T02:21:44;4.07;;;2.03;;
43620;SDS011;29213;50.770;7.298;2023-07-31T02:24:09;3.65;;;1.80;;
43620;SDS011;29213;50.770;7.298;2023-07-31T02:26:35;5.63;;;2.10;;
43620;SDS011;29213;50.770;7.298;2023-07-31T02:29:00;4.95;;;2.10;;
43620;SDS011;29213;50.770;7.298;2023-07-31T02:31:25;5.68;;;2.20;;
43620;SDS011;29213;50.770;7.298;2023-07-31T02:33:51;4.05;;;2.15;;
43620;SDS011;29213;50.770;7.298;2023-07-31T02:36:16;4.22;;;2.20;;
43620;SDS011;29213;50.770;7.298;2023-07-31T02:38:42;5.05;;;2.20;;
43620;SDS011;29213;50.770;7.298;2023-07-31T02:41:07;4.50;;;2.03;;
43620;SDS011;29213;50.770;7.298;2023-07-31T02:43:32;5.00;;;2.20;;
43620;SDS011;29213;50.770;7.298;2023-07-31T02:45:59;5.30;;;2.28;;
43620;SDS011;29213;50.770;7.298;2023-07-31T02:48:24;6.72;;;2.60;;
43620;SDS011;29213;50.770;7.298;2023-07-31T02:50:50;3.92;;;2.20;;
43620;SDS011;29213;50.770;7.298;2023-07-31T02:53:15;4.60;;;2.25;;
43620;SDS011;29213;50.770;7.298;2023-07-31T02:55:40;3.97;;;2.30;;
43620;SDS011;29213;50.770;7.298;2023-07-31T02:58:06;5.50;;;2.40;;
43620;SDS011;29213;50.770;7.298;2023-07-31T03:00:31;4.28;;;2.30;;
43620;SDS011;29213;50.770;7.298;2023-07-31T03:02:57;4.63;;;2.30;;
43620;SDS011;29213;50.770;7.298;2023-07-31T03:05:22;5.50;;;2.50;;
43620;SDS011;29213;50.770;7.298;2023-07-31T03:07:48;3.92;;;2.30;;
43620;SDS011;29213;50.770;7.298;2023-07-31T03:10:13;4.53;;;2.10;;
43620;SDS011;29213;50.770;7.298;2023-07-31T03:12:39;4.13;;;2.20;;
43620;SDS011;29213;50.770;7.298;2023-07-31T03:15:05;4.45;;;2.20;;
43620;SDS011;29213;50.770;7.298;2023-07-31T03:17:31;4.50;;;2.22;;
43620;SDS011;29213;50.770;7.298;2023-07-31T03:19:56;4.25;;;2.30;;
43620;SDS011;29213;50.770;7.298;2023-07-31T03:22:21;5.78;;;2.38;;
43620;SDS011;29213;50.770;7.298;2023-07-31T03:24:47;5.35;;;2.55;;
43620;SDS011;29213;50.770;7.298;2023-07-31T03:27:12;5.07;;;2.38;;
43620;SDS011;29213;50.770;7.298;2023-07-31T03:29:38;5.10;;;2.28;;
43620;SDS011;29213;50.770;7.298;2023-07-31T03:32:03;4.68;;;2.47;;
43620;SDS011;29213;50.770;7.298;2023-07-31T03:34:29;5.60;;;2.60;;
43620;SDS011;29213;50.770;7.298;2023-07-31T03:36:54;4.75;;;2.60;;
43620;SDS011;29213;50.770;7.298;2023-07-31T03:39:20;5.15;;;2.42;;
43620;SDS011;29213;50.770;7.298;2023-07-31T03:41:45;4.43;;;2.17;;
43620;SDS011;29213;50.770;7.298;2023-07-31T03:44:11;5.28;;;2.53;;
43620;SDS011;29213;50.770;7.298;2023-07-31T03:46:36;5.32;;;2.50;;
43620;SDS011;29213;50.770;7.298;2023-07-31T03:49:02;5.60;;;2.65;;
43620;SDS011;29213;50.770;7.298;2023-07-31T03:51:27;4.15;;;2.25;;
43620;SDS011;29213;50.770;7.298;2023-07-31T03:53:52;5.60;;;2.40;;
43620;SDS011;29213;50.770;7.298;2023-07-31T03:56:18;5.05;;;2.55;;
43620;SDS011;29213;50.770;7.298;2023-07-31T03:58:43;3.92;;;2.13;;
43620;SDS011;29213;50.770;7.298;2023-07-31T04:01:09;5.20;;;2.63;;
43620;SDS011;29213;50.770;7.298;2023-07-31T04:03:34;5.95;;;2.40;;
43620;SDS011;29213;50.770;7.298;2023-07-31T04:05:59;4.68;;;2.53;;
43620;SDS011;29213;50.770;7.298;2023-07-31T04:08:25;4.32;;;2.25;;
43620;SDS011;29213;50.770;7.298;2023-07-31T04:10:50;4.07;;;2.35;;
43620;SDS011;29213;50.770;7.298;2023-07-31T04:13:16;5.70;;;2.40;;
43620;SDS011;29213;50.770;7.298;2023-07-31T04:15:41;5.20;;;2.40;;
43620;SDS011;29213;50.770;7.298;2023-07-31T04:18:07;5.75;;;2.67;;
43620;SDS011;29213;50.770;7.298;2023-07-31T04:20:32;4.13;;;2.30;;
43620;SDS011;29213;50.770;7.298;2023-07-31T04:22:57;4.57;;;2.38;;
43620;SDS011;29213;50.770;7.298;2023-07-31T04:25:23;5.28;;;2.65;;
43620;SDS011;29213;50.770;7.298;2023-07-31T04:27:49;4.40;;;2.50;;
43620;SDS011;29213;50.770;7.298;2023-07-31T04:30:14;4.22;;;2.40;;
43620;SDS011;29213;50.770;7.298;2023-07-31T04:32:39;4.03;;;2.40;;
43620;SDS011;29213;50.770;7.298;2023-07-31T04:35:05;4.20;;;2.40;;
43620;SDS011;29213;50.770;7.298;2023-07-31T04:37:30;4.05;;;2.33;;
43620;SDS011;29213;50.770;7.298;2023-07-31T04:39:56;5.22;;;2.55;;
43620;SDS011;29213;50.770;7.298;2023-07-31T04:42:22;5.85;;;2.50;;
43620;SDS011;29213;50.770;7.298;2023-07-31T04:44:47;5.38;;;2.60;;
43620;SDS011;29213;50.770;7.298;2023-07-31T04:47:13;4.65;;;2.40;;
43620;SDS011;29213;50.770;7.298;2023-07-31T04:49:38;6.25;;;2.53;;
43620;SDS011;29213;50.770;7.298;2023-07-31T04:52:04;3.88;;;2.22;;
43620;SDS011;29213;50.770;7.298;2023-07-31T04:54:29;3.53;;;2.00;;
43620;SDS011;29213;50.770;7.298;2023-07-31T04:56:55;5.05;;;2.72;;
43620;SDS011;29213;50.770;7.298;2023-07-31T04:59:20;4.25;;;2.30;;
43620;SDS011;29213;50.770;7.298;2023-07-31T05:01:46;4.85;;;2.50;;
43620;SDS011;29213;50.770;7.298;2023-07-31T05:04:14;4.28;;;2.50;;
43620;SDS011;29213;50.770;7.298;2023-07-31T05:06:40;4.53;;;2.40;;
43620;SDS011;29213;50.770;7.298;2023-07-31T05:09:06;4.53;;;2.20;;
43620;SDS011;29213;50.770;7.298;2023-07-31T05:11:31;4.05;;;2.20;;
43620;SDS011;29213;50.770;7.298;2023-07-31T05:13:57;6.03;;;2.35;;
43620;SDS011;29213;50.770;7.298;2023-07-31T05:16:22;5.82;;;2.60;;
43620;SDS011;29213;50.770;7.298;2023-07-31T05:18:48;4.82;;;2.33;;
43620;SDS011;29213;50.770;7.298;2023-07-31T05:21:13;5.00;;;2.70;;
43620;SDS011;29213;50.770;7.298;2023-07-31T05:23:38;4.65;;;2.60;;
43620;SDS011;29213;50.770;7.298;2023-07-31T05:26:04;5.15;;;2.60;;
43620;SDS011;29213;50.770;7.298;2023-07-31T05:28:30;4.22;;;2.30;;
43620;SDS011;29213;50.770;7.298;2023-07-31T05:30:59;3.70;;;2.13;;
43620;SDS011;29213;50.770;7.298;2023-07-31T05:33:26;4.70;;;2.40;;
43620;SDS011;29213;50.770;7.298;2023-07-31T05:35:51;5.18;;;2.60;;
43620;SDS011;29213;50.770;7.298;2023-07-31T05:38:16;4.93;;;2.55;;
43620;SDS011;29213;50.770;7.298;2023-07-31T05:40:42;4.32;;;2.40;;
43620;SDS011;29213;50.770;7.298;2023-07-31T05:43:08;4.13;;;2.30;;
43620;SDS011;29213;50.770;7.298;2023-07-31T05:45:34;4.15;;;2.20;;
43620;SDS011;29213;50.770;7.298;2023-07-31T05:48:00;4.70;;;2.47;;
43620;SDS011;29213;50.770;7.298;2023-07-31T05:50:25;4.13;;;2.40;;
43620;SDS011;29213;50.770;7.298;2023-07-31T05:52:51;3.55;;;2.15;;
43620;SDS011;29213;50.770;7.298;2023-07-31T05:55:16;4.15;;;2.17;;
43620;SDS011;29213;50.770;7.298;2023-07-31T05:57:42;4.95;;;2.55;;
43620;SDS011;29213;50.770;7.298;2023-07-31T06:00:08;5.22;;;2.40;;
43620;SDS011;29213;50.770;7.298;2023-07-31T06:02:34;4.82;;;2.50;;
43620;SDS011;29213;50.770;7.298;2023-07-31T06:05:02;4.63;;;2.40;;
43620;SDS011;29213;50.770;7.298;2023-07-31T06:07:29;3.88;;;2.10;;
43620;SDS011;29213;50.770;7.298;2023-07-31T06:09:54;4.97;;;2.17;;
43620;SDS011;29213;50.770;7.298;2023-07-31T06:12:20;4.85;;;2.28;;
43620;SDS011;29213;50.770;7.298;2023-07-31T06:14:46;5.53;;;2.55;;
43620;SDS011;29213;50.770;7.298;2023-07-31T06:17:11;4.70;;;2.40;;
43620;SDS011;29213;50.770;7.298;2023-07-31T06:19:36;4.15;;;2.30;;
43620;SDS011;29213;50.770;7.298;2023-07-31T06:22:02;3.50;;;2.05;;
43620;SDS011;29213;50.770;7.298;2023-07-31T06:24:28;4.00;;;2.40;;
43620;SDS011;29213;50.770;7.298;2023-07-31T06:26:53;3.95;;;2.20;;
43620;SDS011;29213;50.770;7.298;2023-07-31T06:29:19;4.18;;;2.22;;
43620;SDS011;29213;50.770;7.298;2023-07-31T06:31:44;3.97;;;2.28;;
43620;SDS011;29213;50.770;7.298;2023-07-31T06:34:09;4.20;;;2.58;;
43620;SDS011;29213;50.770;7.298;2023-07-31T06:36:35;5.22;;;2.60;;
43620;SDS011;29213;50.770;7.298;2023-07-31T06:39:00;4.68;;;2.35;;
43620;SDS011;29213;50.770;7.298;2023-07-31T06:41:26;4.40;;;2.30;;
43620;SDS011;29213;50.770;7.298;2023-07-31T06:43:51;4.70;;;2.60;;
43620;SDS011;29213;50.770;7.298;2023-07-31T06:46:17;4.45;;;2.25;;
43620;SDS011;29213;50.770;7.298;2023-07-31T06:48:42;4.85;;;2.40;;
43620;SDS011;29213;50.770;7.298;2023-07-31T06:51:08;4.43;;;2.60;;
43620;SDS011;29213;50.770;7.298;2023-07-31T06:53:33;5.15;;;2.85;;
43620;SDS011;29213;50.770;7.298;2023-07-31T06:55:58;5.45;;;2.90;;
43620;SDS011;29213;50.770;7.298;2023-07-31T06:58:24;7.68;;;2.85;;
43620;SDS011;29213;50.770;7.298;2023-07-31T07:00:49;4.95;;;2.72;;
43620;SDS011;29213;50.770;7.298;2023-07-31T07:03:17;5.43;;;2.70;;
43620;SDS011;29213;50.770;7.298;2023-07-31T07:05:44;6.90;;;2.35;;
43620;SDS011;29213;50.770;7.298;2023-07-31T07:08:09;5.55;;;2.50;;
43620;SDS011;29213;50.770;7.298;2023-07-31T07:10:35;4.95;;;2.75;;
43620;SDS011;29213;50.770;7.298;2023-07-31T07:13:00;4.63;;;2.67;;
43620;SDS011;29213;50.770;7.298;2023-07-31T07:15:26;7.03;;;2.90;;
43620;SDS011;29213;50.770;7.298;2023-07-31T07:17:51;4.32;;;2.40;;
43620;SDS011;29213;50.770;7.298;2023-07-31T07:20:16;4.88;;;2.65;;
43620;SDS011;29213;50.770;7.298;2023-07-31T07:22:42;5.07;;;2.80;;
43620;SDS011;29213;50.770;7.298;2023-07-31T07:25:10;6.53;;;2.72;;
43620;SDS011;29213;50.770;7.298;2023-07-31T07:27:36;4.82;;;2.40;;
43620;SDS011;29213;50.770;7.298;2023-07-31T07:30:01;7.45;;;2.67;;
43620;SDS011;29213;50.770;7.298;2023-07-31T07:32:27;6.70;;;2.90;;
43620;SDS011;29213;50.770;7.298;2023-07-31T07:34:52;4.90;;;2.60;;
43620;SDS011;29213;50.770;7.298;2023-07-31T07:37:17;4.68;;;2.72;;
43620;SDS011;29213;50.770;7.298;2023-07-31T07:39:43;4.10;;;2.35;;
43620;SDS011;29213;50.770;7.298;2023-07-31T07:42:09;4.00;;;2.40;;
43620;SDS011;29213;50.770;7.298;2023-07-31T07:44:34;4.45;;;2.45;;
43620;SDS011;29213;50.770;7.298;2023-07-31T07:46:59;5.13;;;2.50;;
43620;SDS011;29213;50.770;7.298;2023-07-31T07:49:25;4.13;;;2.47;;
43620;SDS011;29213;50.770;7.298;2023-07-31T07:51:50;5.00;;;2.50;;
43620;SDS011;29213;50.770;7.298;2023-07-31T07:54:16;4.78;;;2.70;;
43620;SDS011;29213;50.770;7.298;2023-07-31T07:56:46;4.30;;;2.58;;
43620;SDS011;29213;50.770;7.298;2023-07-31T07:59:11;5.10;;;3.10;;
43620;SDS011;29213;50.770;7.298;2023-07-31T08:01:37;6.75;;;2.70;;
43620;SDS011;29213;50.770;7.298;2023-07-31T08:04:02;4.88;;;2.65;;
43620;SDS011;29213;50.770;7.298;2023-07-31T08:06:28;6.10;;;2.92;;
43620;SDS011;29213;50.770;7.298;2023-07-31T08:08:54;4.53;;;2.58;;
43620;SDS011;29213;50.770;7.298;2023-07-31T08:11:20;5.28;;;2.80;;
43620;SDS011;29213;50.770;7.298;2023-07-31T08:13:47;5.97;;;3.05;;
43620;SDS011;29213;50.770;7.298;2023-07-31T08:16:12;5.38;;;2.65;;
43620;SDS011;29213;50.770;7.298;2023-07-31T08:18:37;6.40;;;2.95;;
43620;SDS011;29213;50.770;7.298;2023-07-31T08:21:03;5.55;;;2.90;;
43620;SDS011;29213;50.770;7.298;2023-07-31T08:23:28;5.85;;;2.90;;
43620;SDS011;29213;50.770;7.298;2023-07-31T08:25:54;5.95;;;2.72;;
43620;SDS011;29213;50.770;7.298;2023-07-31T08:28:19;6.28;;;2.80;;
43620;SDS011;29213;50.770;7.298;2023-07-31T08:30:44;4.43;;;2.63;;
43620;SDS011;29213;50.770;7.298;2023-07-31T08:33:10;4.85;;;2.53;;
43620;SDS011;29213;50.770;7.298;2023-07-31T08:35:35;5.82;;;2.90;;
43620;SDS011;29213;50.770;7.298;2023-07-31T08:38:01;5.32;;;2.85;;
43620;SDS011;29213;50.770;7.298;2023-07-31T08:40:26;5.47;;;2.83;;
43620;SDS011;29213;50.770;7.298;2023-07-31T08:42:54;5.07;;;2.70;;
43620;SDS011;29213;50.770;7.298;2023-07-31T08:45:21;5.30;;;3.08;;
43620;SDS011;29213;50.770;7.298;2023-07-31T08:47:51;5.65;;;3.05;;
43620;SDS011;29213;50.770;7.298;2023-07-31T08:50:18;5.07;;;2.83;;
43620;SDS011;29213;50.770;7.298;2023-07-31T08:52:45;6.35;;;2.90;;
43620;SDS011;29213;50.770;7.298;2023-07-31T08:55:12;6.00;;;3.10;;
43620;SDS011;29213;50.770;7.298;2023-07-31T08:57:38;5.30;;;2.85;;
43620;SDS011;29213;50.770;7.298;2023-07-31T09:00:04;4.57;;;2.60;;
43620;SDS011;29213;50.770;7.298;2023-07-31T09:02:32;6.28;;;2.83;;
43620;SDS011;29213;50.770;7.298;2023-07-31T09:05:02;4.60;;;2.78;;
43620;SDS011;29213;50.770;7.298;2023-07-31T09:07:30;5.50;;;3.17;;
43620;SDS011;29213;50.770;7.298;2023-07-31T09:09:57;5.50;;;2.92;;
43620;SDS011;29213;50.770;7.298;2023-07-31T09:12:22;6.13;;;2.97;;
43620;SDS011;29213;50.770;7.298;2023-07-31T09:14:47;5.03;;;2.60;;
43620;SDS011;29213;50.770;7.298;2023-07-31T09:17:13;5.05;;;2.88;;
43620;SDS011;29213;50.770;7.298;2023-07-31T09:19:39;5.88;;;2.83;;
43620;SDS011;29213;50.770;7.298;2023-07-31T09:22:05;5.57;;;2.80;;
43620;SDS011;29213;50.770;7.298;2023-07-31T09:24:32;4.97;;;2.53;;
43620;SDS011;29213;50.770;7.298;2023-07-31T09:26:59;5.32;;;2.83;;
43620;SDS011;29213;50.770;7.298;2023-07-31T09:29:29;5.45;;;2.53;;
43620;SDS011;29213;50.770;7.298;2023-07-31T09:31:55;4.80;;;2.80;;
43620;SDS011;29213;50.770;7.298;2023-07-31T09:34:27;4.78;;;2.70;;
43620;SDS011;29213;50.770;7.298;2023-07-31T09:37:06;6.35;;;2.78;;
43620;SDS011;29213;50.770;7.298;2023-07-31T09:39:31;5.35;;;2.83;;
43620;SDS011;29213;50.770;7.298;2023-07-31T09:41:57;5.60;;;2.90;;
43620;SDS011;29213;50.770;7.298;2023-07-31T09:44:37;4.65;;;2.70;;
43620;SDS011;29213;50.770;7.298;2023-07-31T09:47:06;5.53;;;3.03;;
43620;SDS011;29213;50.770;7.298;2023-07-31T09:49:31;5.22;;;2.63;;
43620;SDS011;29213;50.770;7.298;2023-07-31T09:51:57;4.70;;;2.45;;
43620;SDS011;29213;50.770;7.298;2023-07-31T09:54:22;6.25;;;2.80;;
43620;SDS011;29213;50.770;7.298;2023-07-31T09:56:48;4.80;;;2.90;;
43620;SDS011;29213;50.770;7.298;2023-07-31T09:59:17;5.32;;;2.53;;
43620;SDS011;29213;50.770;7.298;2023-07-31T10:01:45;5.72;;;2.63;;
43620;SDS011;29213;50.770;7.298;2023-07-31T10:04:11;5.28;;;2.60;;
43620;SDS011;29213;50.770;7.298;2023-07-31T10:06:38;4.90;;;2.67;;
43620;SDS011;29213;50.770;7.298;2023-07-31T10:09:05;4.10;;;2.45;;
43620;SDS011;29213;50.770;7.298;2023-07-31T10:11:41;4.72;;;2.60;;
43620;SDS011;29213;50.770;7.298;2023-07-31T10:14:09;4.05;;;2.30;;
43620;SDS011;29213;50.770;7.298;2023-07-31T10:16:37;5.07;;;2.72;;
43620;SDS011;29213;50.770;7.298;2023-07-31T10:19:04;4.93;;;2.67;;
43620;SDS011;29213;50.770;7.298;2023-07-31T10:21:31;5.43;;;2.88;;
43620;SDS011;29213;50.770;7.298;2023-07-31T10:24:01;3.75;;;2.00;;
43620;SDS011;29213;50.770;7.298;2023-07-31T10:26:28;4.45;;;2.40;;
43620;SDS011;29213;50.770;7.298;2023-07-31T10:28:55;5.43;;;2.15;;
43620;SDS011;29213;50.770;7.298;2023-07-31T10:31:22;4.45;;;2.50;;
43620;SDS011;29213;50.770;7.298;2023-07-31T10:33:49;3.95;;;2.33;;
43620;SDS011;29213;50.770;7.298;2023-07-31T10:36:19;4.25;;;2.33;;
43620;SDS011;29213;50.770;7.298;2023-07-31T10:38:46;4.43;;;2.33;;
43620;SDS011;29213;50.770;7.298;2023-07-31T10:41:14;5.40;;;2.40;;
43620;SDS011;29213;50.770;7.298;2023-07-31T10:43:39;4.65;;;2.35;;
43620;SDS011;29213;50.770;7.298;2023-07-31T10:46:08;4.78;;;2.10;;
43620;SDS011;29213;50.770;7.298;2023-07-31T10:48:37;4.32;;;2.20;;
43620;SDS011;29213;50.770;7.298;2023-07-31T10:51:08;4.50;;;2.50;;
43620;SDS011;29213;50.770;7.298;2023-07-31T10:53:35;3.50;;;2.00;;
43620;SDS011;29213;50.770;7.298;2023-07-31T10:56:02;3.80;;;2.10;;
43620;SDS011;29213;50.770;7.298;2023-07-31T10:58:29;4.15;;;2.25;;
43620;SDS011;29213;50.770;7.298;2023-07-31T11:00:57;3.97;;;2.10;;
43620;SDS011;29213;50.770;7.298;2023-07-31T11:03:27;4.47;;;2.08;;
43620;SDS011;29213;50.770;7.298;2023-07-31T11:06:07;5.60;;;2.40;;
43620;SDS011;29213;50.770;7.298;2023-07-31T11:08:33;4.25;;;2.00;;
43620;SDS011;29213;50.770;7.298;2023-07-31T11:13:40;3.50;;;1.80;;
43620;SDS011;29213;50.770;7.298;2023-07-31T11:16:11;4.30;;;2.00;;
43620;SDS011;29213;50.770;7.298;2023-07-31T11:18:39;7.30;;;2.15;;
43620;SDS011;29213;50.770;7.298;2023-07-31T11:21:06;8.52;;;2.65;;
43620;SDS011;29213;50.770;7.298;2023-07-31T11:23:31;4.78;;;2.20;;
43620;SDS011;29213;50.770;7.298;2023-07-31T11:26:00;4.10;;;1.92;;
43620;SDS011;29213;50.770;7.298;2023-07-31T11:28:30;11.30;;;2.58;;
43620;SDS011;29213;50.770;7.298;2023-07-31T11:30:57;4.25;;;1.65;;
43620;SDS011;29213;50.770;7.298;2023-07-31T11:33:22;3.13;;;1.63;;
43620;SDS011;29213;50.770;7.298;2023-07-31T11:35:48;3.25;;;1.70;;
43620;SDS011;29213;50.770;7.298;2023-07-31T11:38:28;4.32;;;1.50;;
43620;SDS011;29213;50.770;7.298;2023-07-31T11:40:55;4.03;;;1.73;;
43620;SDS011;29213;50.770;7.298;2023-07-31T11:43:22;3.25;;;1.73;;
43620;SDS011;29213;50.770;7.298;2023-07-31T11:45:49;3.55;;;1.67;;
43620;SDS011;29213;50.770;7.298;2023-07-31T11:48:21;5.60;;;1.58;;
43620;SDS011;29213;50.770;7.298;2023-07-31T11:50:47;3.17;;;1.40;;
43620;SDS011;29213;50.770;7.298;2023-07-31T11:53:14;6.82;;;1.95;;
43620;SDS011;29213;50.770;7.298;2023-07-31T11:55:42;5.10;;;1.65;;
43620;SDS011;29213;50.770;7.298;2023-07-31T11:58:08;3.28;;;1.33;;
43620;SDS011;29213;50.770;7.298;2023-07-31T12:00:33;4.50;;;1.50;;
43620;SDS011;29213;50.770;7.298;2023-07-31T12:02:59;6.50;;;2.47;;
43620;SDS011;29213;50.770;7.298;2023-07-31T12:05:25;4.93;;;3.17;;
43620;SDS011;29213;50.770;7.298;2023-07-31T12:07:51;4.90;;;3.28;;
43620;SDS011;29213;50.770;7.298;2023-07-31T12:15:39;3.30;;;1.95;;
43620;SDS011;29213;50.770;7.298;2023-07-31T12:18:07;4.15;;;1.40;;
43620;SDS011;29213;50.770;7.298;2023-07-31T12:20:34;2.90;;;1.40;;
43620;SDS011;29213;50.770;7.298;2023-07-31T12:23:00;2.83;;;1.20;;
43620;SDS011;29213;50.770;7.298;2023-07-31T12:25:30;2.35;;;1.10;;
43620;SDS011;29213;50.770;7.298;2023-07-31T12:27:57;2.58;;;1.13;;
43620;SDS011;29213;50.770;7.298;2023-07-31T12:30:27;10.05;;;1.83;;
43620;SDS011;29213;50.770;7.298;2023-07-31T12:32:52;3.90;;;1.58;;
43620;SDS011;29213;50.770;7.298;2023-07-31T12:35:18;3.47;;;1.33;;
43620;SDS011;29213;50.770;7.298;2023-07-31T12:37:43;3.90;;;1.50;;
43620;SDS011;29213;50.770;7.298;2023-07-31T12:40:09;4.95;;;1.55;;
43620;SDS011;29213;50.770;7.298;2023-07-31T12:42:34;5.70;;;1.65;;
43620;SDS011;29213;50.770;7.298;2023-07-31T12:45:00;3.00;;;1.25;;
43620;SDS011;29213;50.770;7.298;2023-07-31T12:47:25;4.13;;;1.17;;
43620;SDS011;29213;50.770;7.298;2023-07-31T12:49:51;2.80;;;1.30;;
43620;SDS011;29213;50.770;7.298;2023-07-31T12:52:16;3.70;;;1.50;;
43620;SDS011;29213;50.770;7.298;2023-07-31T12:54:41;3.13;;;1.60;;
43620;SDS011;29213;50.770;7.298;2023-07-31T12:57:07;4.28;;;1.73;;
43620;SDS011;29213;50.770;7.298;2023-07-31T12:59:32;19.55;;;3.80;;
43620;SDS011;29213;50.770;7.298;2023-07-31T13:01:58;8.32;;;2.30;;
43620;SDS011;29213;50.770;7.298;2023-07-31T13:04:23;3.78;;;1.83;;
43620;SDS011;29213;50.770;7.298;2023-07-31T13:06:48;3.75;;;1.80;;
43620;SDS011;29213;50.770;7.298;2023-07-31T13:09:15;4.28;;;1.70;;
43620;SDS011;29213;50.770;7.298;2023-07-31T13:11:42;5.82;;;1.80;;
43620;SDS011;29213;50.770;7.298;2023-07-31T13:14:08;3.85;;;1.90;;
43620;SDS011;29213;50.770;7.298;2023-07-31T13:16:33;3.90;;;2.20;;
43620;SDS011;29213;50.770;7.298;2023-07-31T13:18:59;3.88;;;2.35;;
43620;SDS011;29213;50.770;7.298;2023-07-31T13:21:24;11.05;;;3.05;;
43620;SDS011;29213;50.770;7.298;2023-07-31T13:23:49;5.75;;;2.55;;
43620;SDS011;29213;50.770;7.298;2023-07-31T13:26:15;4.53;;;2.40;;
43620;SDS011;29213;50.770;7.298;2023-07-31T13:28:40;4.32;;;2.38;;
43620;SDS011;29213;50.770;7.298;2023-07-31T13:31:06;4.80;;;2.20;;
43620;SDS011;29213;50.770;7.298;2023-07-31T13:33:31;4.45;;;2.30;;
43620;SDS011;29213;50.770;7.298;2023-07-31T13:35:56;4.75;;;2.65;;
43620;SDS011;29213;50.770;7.298;2023-07-31T13:38:22;4.88;;;2.60;;
43620;SDS011;29213;50.770;7.298;2023-07-31T13:40:47;6.85;;;2.63;;
43620;SDS011;29213;50.770;7.298;2023-07-31T13:43:12;4.90;;;2.70;;
43620;SDS011;29213;50.770;7.298;2023-07-31T13:45:38;4.90;;;2.85;;
43620;SDS011;29213;50.770;7.298;2023-07-31T13:48:03;3.60;;;2.30;;
43620;SDS011;29213;50.770;7.298;2023-07-31T13:50:29;5.15;;;2.50;;
43620;SDS011;29213;50.770;7.298;2023-07-31T13:52:54;6.05;;;2.78;;
43620;SDS011;29213;50.770;7.298;2023-07-31T13:55:20;4.57;;;2.85;;
43620;SDS011;29213;50.770;7.298;2023-07-31T13:57:45;4.07;;;2.50;;
43620;SDS011;29213;50.770;7.298;2023-07-31T14:00:11;4.45;;;2.78;;
43620;SDS011;29213;50.770;7.298;2023-07-31T14:02:37;4.70;;;2.30;;
43620;SDS011;29213;50.770;7.298;2023-07-31T14:05:02;4.78;;;2.53;;
43620;SDS011;29213;50.770;7.298;2023-07-31T14:07:28;3.50;;;1.80;;
43620;SDS011;29213;50.770;7.298;2023-07-31T14:09:53;3.88;;;2.00;;
43620;SDS011;29213;50.770;7.298;2023-07-31T14:12:19;5.05;;;2.10;;
43620;SDS011;29213;50.770;7.298;2023-07-31T14:14:44;4.97;;;1.95;;
43620;SDS011;29213;50.770;7.298;2023-07-31T14:17:09;3.17;;;1.70;;
43620;SDS011;29213;50.770;7.298;2023-07-31T14:19:35;3.28;;;1.80;;
43620;SDS011;29213;50.770;7.298;2023-07-31T14:22:00;2.88;;;1.75;;
43620;SDS011;29213;50.770;7.298;2023-07-31T14:24:26;4.07;;;1.90;;
43620;SDS011;29213;50.770;7.298;2023-07-31T14:26:51;5.25;;;2.22;;
43620;SDS011;29213;50.770;7.298;2023-07-31T14:29:16;3.63;;;2.00;;
43620;SDS011;29213;50.770;7.298;2023-07-31T14:31:42;4.63;;;2.20;;
43620;SDS011;29213;50.770;7.298;2023-07-31T14:34:07;4.43;;;2.00;;
43620;SDS011;29213;50.770;7.298;2023-07-31T14:36:32;3.85;;;1.83;;
43620;SDS011;29213;50.770;7.298;2023-07-31T14:38:58;4.13;;;2.08;;
43620;SDS011;29213;50.770;7.298;2023-07-31T14:41:23;3.60;;;1.92;;
43620;SDS011;29213;50.770;7.298;2023-07-31T14:43:49;6.70;;;2.83;;
43620;SDS011;29213;50.770;7.298;2023-07-31T14:46:14;3.70;;;1.83;;
43620;SDS011;29213;50.770;7.298;2023-07-31T14:48:39;5.57;;;2.38;;
43620;SDS011;29213;50.770;7.298;2023-07-31T14:51:05;4.70;;;2.10;;
43620;SDS011;29213;50.770;7.298;2023-07-31T14:53:30;3.47;;;1.80;;